sensor_id;sensor_type;location;lat;lon;timestamp;P1;durP1;ratioP1;P2;durP2;ratioP2
77026;SDS011;65956;52.986;17.490;2023-12-22T20:15:38;10.20;;;2.00;;
77026;SDS011;65956;52.986;17.490;2023-12-22T20:18:04;6.70;;;1.90;;
77026;SDS011;65956;52.986;17.490;2023-12-22T20:20:31;11.00;;;2.60;;
77026;SDS011;65956;52.986;17.490;2023-12-22T20:22:58;8.10;;;2.20;;
77026;SDS011;65956;52.986;17.490;2023-12-22T20:25:25;10.00;;;2.10;;
77026;SDS011;65956;52.986;17.490;2023-12-22T20:27:52;10.20;;;3.40;;
77026;SDS011;65956;52.986;17.490;2023-12-22T20:30:21;10.90;;;3.40;;
77026;SDS011;65956;52.986;17.490;2023-12-22T20:32:49;11.90;;;3.90;;
77026;SDS011;65956;52.986;17.490;2023-12-22T20:35:23;9.80;;;3.70;;
77026;SDS011;65956;52.986;17.490;2023-12-22T20:37:49;22.40;;;8.40;;
77026;SDS011;65956;52.986;17.490;2023-12-22T20:40:19;13.80;;;5.20;;
77026;SDS011;65956;52.986;17.490;2023-12-22T20:42:46;14.90;;;5.60;;
77026;SDS011;65956;52.986;17.490;2023-12-22T20:45:12;11.50;;;3.90;;
77026;SDS011;65956;52.986;17.490;2023-12-22T20:47:39;10.70;;;3.80;;
77026;SDS011;65956;52.986;17.490;2023-12-22T20:50:05;5.70;;;1.50;;
77026;SDS011;65956;52.986;17.490;2023-12-22T20:52:35;6.10;;;1.70;;
77026;SDS011;65956;52.986;17.490;2023-12-22T20:55:02;8.40;;;2.30;;
77026;SDS011;65956;52.986;17.490;2023-12-22T20:57:29;5.80;;;1.80;;
77026;SDS011;65956;52.986;17.490;2023-12-22T20:59:55;9.10;;;2.10;;
77026;SDS011;65956;52.986;17.490;2023-12-22T21:02:21;5.80;;;1.80;;
77026;SDS011;65956;52.986;17.490;2023-12-22T21:04:47;8.40;;;2.10;;
77026;SDS011;65956;52.986;17.490;2023-12-22T21:07:16;8.60;;;1.80;;
77026;SDS011;65956;52.986;17.490;2023-12-22T21:09:51;8.20;;;1.80;;
77026;SDS011;65956;52.986;17.490;2023-12-22T21:12:17;8.40;;;1.60;;
77026;SDS011;65956;52.986;17.490;2023-12-22T21:14:44;6.10;;;1.20;;
77026;SDS011;65956;52.986;17.490;2023-12-22T21:17:10;10.10;;;2.30;;
77026;SDS011;65956;52.986;17.490;2023-12-22T21:19:36;5.50;;;1.20;;
77026;SDS011;65956;52.986;17.490;2023-12-22T21:22:02;8.10;;;1.70;;
77026;SDS011;65956;52.986;17.490;2023-12-22T21:24:30;7.80;;;1.80;;
77026;SDS011;65956;52.986;17.490;2023-12-22T21:26:59;7.20;;;2.40;;
77026;SDS011;65956;52.986;17.490;2023-12-22T21:29:25;10.60;;;2.10;;
77026;SDS011;65956;52.986;17.490;2023-12-22T21:31:54;10.70;;;2.90;;
77026;SDS011;65956;52.986;17.490;2023-12-22T21:34:24;6.30;;;1.30;;
77026;SDS011;65956;52.986;17.490;2023-12-22T21:36:50;4.20;;;1.70;;
77026;SDS011;65956;52.986;17.490;2023-12-22T21:39:17;8.80;;;2.10;;
77026;SDS011;65956;52.986;17.490;2023-12-22T21:41:43;8.20;;;2.30;;
77026;SDS011;65956;52.986;17.490;2023-12-22T21:44:10;8.30;;;1.70;;
77026;SDS011;65956;52.986;17.490;2023-12-22T21:46:41;8.90;;;1.30;;
77026;SDS011;65956;52.986;17.490;2023-12-22T21:49:08;9.70;;;1.80;;
77026;SDS011;65956;52.986;17.490;2023-12-22T21:51:34;7.50;;;2.20;;
77026;SDS011;65956;52.986;17.490;2023-12-22T21:54:00;7.20;;;1.80;;
77026;SDS011;65956;52.986;17.490;2023-12-22T21:56:27;7.90;;;1.80;;
77026;SDS011;65956;52.986;17.490;2023-12-22T21:58:56;9.00;;;2.00;;
77026;SDS011;65956;52.986;17.490;2023-12-22T22:01:22;6.70;;;1.80;;
77026;SDS011;65956;52.986;17.490;2023-12-22T22:03:51;7.90;;;1.80;;
77026;SDS011;65956;52.986;17.490;2023-12-22T22:06:18;6.50;;;1.70;;
77026;SDS011;65956;52.986;17.490;2023-12-22T22:08:45;11.10;;;1.80;;
77026;SDS011;65956;52.986;17.490;2023-12-22T22:11:11;7.80;;;1.80;;
77026;SDS011;65956;52.986;17.490;2023-12-22T22:13:44;5.40;;;1.50;;
77026;SDS011;65956;52.986;17.490;2023-12-22T22:16:10;6.00;;;1.50;;
77026;SDS011;65956;52.986;17.490;2023-12-22T22:18:36;6.50;;;2.20;;
77026;SDS011;65956;52.986;17.490;2023-12-22T22:21:02;6.50;;;1.50;;
77026;SDS011;65956;52.986;17.490;2023-12-22T22:23:29;7.50;;;1.80;;
77026;SDS011;65956;52.986;17.490;2023-12-22T22:25:56;8.00;;;2.50;;
77026;SDS011;65956;52.986;17.490;2023-12-22T22:28:22;5.10;;;1.40;;
77026;SDS011;65956;52.986;17.490;2023-12-22T22:30:48;6.60;;;1.30;;
77026;SDS011;65956;52.986;17.490;2023-12-22T22:33:19;7.40;;;2.00;;
77026;SDS011;65956;52.986;17.490;2023-12-22T22:35:45;6.20;;;1.30;;
77026;SDS011;65956;52.986;17.490;2023-12-22T22:38:11;7.40;;;1.50;;
77026;SDS011;65956;52.986;17.490;2023-12-22T22:40:37;8.30;;;2.20;;
77026;SDS011;65956;52.986;17.490;2023-12-22T22:43:03;6.70;;;1.70;;
77026;SDS011;65956;52.986;17.490;2023-12-22T22:45:29;5.40;;;1.40;;
77026;SDS011;65956;52.986;17.490;2023-12-22T22:47:56;5.00;;;1.10;;
77026;SDS011;65956;52.986;17.490;2023-12-22T22:50:22;5.30;;;1.60;;
77026;SDS011;65956;52.986;17.490;2023-12-22T22:52:48;6.40;;;1.40;;
77026;SDS011;65956;52.986;17.490;2023-12-22T22:55:14;7.00;;;1.70;;
77026;SDS011;65956;52.986;17.490;2023-12-22T22:57:40;6.10;;;1.10;;
77026;SDS011;65956;52.986;17.490;2023-12-22T23:00:06;5.70;;;1.80;;
77026;SDS011;65956;52.986;17.490;2023-12-22T23:02:37;8.50;;;1.50;;
77026;SDS011;65956;52.986;17.490;2023-12-22T23:05:05;6.20;;;1.50;;
77026;SDS011;65956;52.986;17.490;2023-12-22T23:07:32;5.60;;;1.10;;
77026;SDS011;65956;52.986;17.490;2023-12-22T23:09:58;6.50;;;1.10;;
77026;SDS011;65956;52.986;17.490;2023-12-22T23:12:24;4.80;;;1.00;;
77026;SDS011;65956;52.986;17.490;2023-12-22T23:14:50;6.40;;;1.10;;
77026;SDS011;65956;52.986;17.490;2023-12-22T23:17:17;6.70;;;1.40;;
77026;SDS011;65956;52.986;17.490;2023-12-22T23:19:43;8.50;;;1.10;;
77026;SDS011;65956;52.986;17.490;2023-12-22T23:22:09;4.50;;;1.00;;
77026;SDS011;65956;52.986;17.490;2023-12-22T23:24:35;7.80;;;1.30;;
77026;SDS011;65956;52.986;17.490;2023-12-22T23:27:01;6.00;;;1.60;;
77026;SDS011;65956;52.986;17.490;2023-12-22T23:29:27;6.80;;;1.90;;
77026;SDS011;65956;52.986;17.490;2023-12-22T23:31:53;7.10;;;1.50;;
77026;SDS011;65956;52.986;17.490;2023-12-22T23:34:19;7.20;;;1.60;;
77026;SDS011;65956;52.986;17.490;2023-12-22T23:36:45;9.10;;;1.60;;
77026;SDS011;65956;52.986;17.490;2023-12-22T23:39:11;6.80;;;1.50;;
77026;SDS011;65956;52.986;17.490;2023-12-22T23:41:37;7.70;;;1.50;;
77026;SDS011;65956;52.986;17.490;2023-12-22T23:44:03;9.20;;;2.60;;
77026;SDS011;65956;52.986;17.490;2023-12-22T23:46:30;7.70;;;1.60;;
77026;SDS011;65956;52.986;17.490;2023-12-22T23:48:56;9.90;;;2.10;;
77026;SDS011;65956;52.986;17.490;2023-12-22T23:51:23;7.00;;;1.50;;
77026;SDS011;65956;52.986;17.490;2023-12-22T23:53:49;6.40;;;2.10;;
77026;SDS011;65956;52.986;17.490;2023-12-22T23:56:15;6.30;;;1.50;;
77026;SDS011;65956;52.986;17.490;2023-12-22T23:58:41;5.30;;;1.30;;
